Denis Island Airport

Jump to: basic info | weather | comments

Related pages: nearby airports | nearby navaids | notams | map

Basic information (top)

Codes: DEI FSSD
Location: lon -3.802220, lat 55.666901, elev 10 ft / 3 m msl
Status: small_airport

Weather (top)

Current conditions for Seychelles International Airport 53nm (98km) S (rec'd 2014/12/19 04:00Z):

FSIA 190400Z 28007KT 9999 VCSH BKN016 BKN080 28/24 Q1013 TEMPO 8000 -SHRA

Airport forecast for Praslin Airport 31nm (58km) S (rec'd 2012/02/23 12:00Z):

TAF FSPP 231130Z 2312/2324 35010KT 9999 SCT018 BKN250 
      TEMPO 2312/2316 -SHRA FEW014CB BKN016 
      TEMPO 2400/2418 -SHRA FEW014CB BKN016

Latest comments (top)

No comments yet for Denis Island Airport

More... (top)

See also NOTAMs and nearby airports and navaids, or visit the Denis Island Airport page at the main OurAirports website..